createdAt,value
2022-09-28T00:01:14.392Z,7.50
2022-09-28T00:03:40.860Z,10.70
2022-09-28T00:06:09.182Z,8.90
2022-09-28T00:08:35.821Z,8.10
2022-09-28T00:11:03.179Z,11.20
2022-09-28T00:13:32.594Z,7.50
2022-09-28T00:16:13.524Z,8.20
2022-09-28T00:18:40.923Z,7.90
2022-09-28T00:21:09.821Z,7.70
2022-09-28T00:23:59.788Z,7.60
2022-09-28T00:26:27.641Z,8.70
2022-09-28T00:28:55.121Z,8.90
2022-09-28T00:31:24.535Z,8.10
2022-09-28T00:33:51.617Z,8.50
2022-09-28T00:36:18.567Z,8.30
2022-09-28T00:38:45.806Z,7.90
2022-09-28T00:41:12.687Z,7.40
2022-09-28T00:43:39.765Z,8.80
2022-09-28T00:48:35.597Z,7.70
2022-09-28T00:51:05.078Z,9.70
2022-09-28T00:53:34.475Z,7.80
2022-09-28T00:56:06.989Z,9.30
2022-09-28T00:58:35.844Z,9.00
2022-09-28T01:01:02.767Z,9.20
2022-09-28T01:03:29.240Z,7.90
2022-09-28T01:05:57.288Z,9.80
2022-09-28T01:08:26.586Z,10.20
2022-09-28T01:10:53.845Z,9.10
2022-09-28T01:13:21.065Z,8.00
2022-09-28T01:15:53.888Z,9.30
2022-09-28T01:18:27.390Z,7.60
2022-09-28T01:21:02.085Z,8.40
2022-09-28T01:23:28.743Z,9.60
2022-09-28T01:26:02.945Z,7.80
2022-09-28T01:28:30.263Z,8.40
2022-09-28T01:30:56.531Z,8.00
2022-09-28T01:33:26.381Z,7.80
2022-09-28T01:36:12.931Z,8.40
2022-09-28T01:39:01.498Z,8.80
2022-09-28T01:41:29.776Z,6.90
2022-09-28T01:43:56.969Z,10.10
2022-09-28T01:46:26.937Z,8.20
2022-09-28T01:48:56.874Z,7.40
2022-09-28T01:51:33.574Z,10.70
2022-09-28T01:54:01.642Z,8.70
2022-09-28T01:56:33.843Z,9.30
2022-09-28T01:59:07.214Z,7.50
2022-09-28T02:01:37.314Z,7.80
2022-09-28T02:04:06.783Z,7.70
2022-09-28T02:06:40.656Z,7.80
2022-09-28T02:09:12.046Z,9.00
2022-09-28T02:11:40.995Z,9.10
2022-09-28T02:14:08.840Z,9.20
2022-09-28T02:16:42.350Z,8.10
2022-09-28T02:19:13.383Z,7.90
2022-09-28T02:21:45.803Z,7.70
2022-09-28T02:24:21.815Z,7.90
2022-09-28T02:26:50.042Z,14.70
2022-09-28T02:29:17.048Z,149.40
2022-09-28T02:31:43.888Z,76.20
2022-09-28T02:34:10.263Z,52.70
2022-09-28T02:36:36.779Z,45.10
2022-09-28T02:39:03.428Z,42.20
2022-09-28T02:41:49.063Z,44.30
2022-09-28T02:44:32.643Z,28.50
2022-09-28T02:47:02.822Z,26.30
2022-09-28T02:49:32.999Z,16.60
2022-09-28T02:52:05.649Z,10.40
2022-09-28T02:54:51.021Z,9.10
2022-09-28T02:57:24.394Z,11.80
2022-09-28T02:59:57.003Z,8.30
2022-09-28T03:02:27.419Z,9.10
2022-09-28T03:05:12.887Z,8.50
2022-09-28T03:07:41.395Z,8.20
2022-09-28T03:10:07.842Z,19.70
2022-09-28T03:12:35.693Z,25.80
2022-09-28T03:15:20.836Z,15.00
2022-09-28T03:17:47.537Z,15.10
2022-09-28T03:20:14.889Z,15.20
2022-09-28T03:22:41.393Z,15.80
2022-09-28T03:25:08.240Z,13.80
2022-09-28T03:27:35.007Z,17.30
2022-09-28T03:30:01.509Z,15.80
2022-09-28T03:32:27.790Z,15.50
2022-09-28T03:34:54.373Z,19.40
2022-09-28T03:37:20.995Z,16.00
2022-09-28T03:39:47.388Z,14.80
2022-09-28T03:42:13.832Z,15.20
2022-09-28T03:44:40.182Z,13.80
2022-09-28T03:47:07.865Z,15.00
2022-09-28T03:49:34.503Z,10.70
2022-09-28T03:52:01.427Z,12.30
2022-09-28T03:54:28.433Z,8.30
2022-09-28T03:56:54.925Z,9.20
2022-09-28T03:59:21.302Z,12.60
2022-09-28T04:01:48.802Z,10.40
2022-09-28T04:04:15.014Z,8.10
2022-09-28T04:06:41.894Z,10.30
2022-09-28T04:09:08.602Z,8.90
2022-09-28T04:11:59.374Z,10.20
2022-09-28T04:14:21.236Z,9.10
2022-09-28T04:16:47.543Z,15.50
2022-09-28T04:19:14.635Z,18.30
2022-09-28T04:21:41.163Z,12.50
2022-09-28T04:24:08.485Z,12.20
2022-09-28T04:26:34.846Z,10.20
2022-09-28T04:29:16.700Z,9.30
2022-09-28T04:31:43.493Z,11.90
2022-09-28T04:34:10.532Z,10.10
2022-09-28T04:36:36.975Z,9.50
2022-09-28T04:39:03.574Z,10.50
2022-09-28T04:41:30.027Z,9.20
2022-09-28T04:43:56.538Z,9.20
2022-09-28T04:46:22.900Z,8.20
2022-09-28T04:48:49.432Z,9.20
2022-09-28T04:51:15.862Z,9.70
2022-09-28T04:53:42.500Z,9.00
2022-09-28T04:56:12.136Z,10.20
2022-09-28T04:58:39.153Z,9.60
2022-09-28T05:01:06.878Z,11.10
2022-09-28T05:03:33.717Z,9.40
2022-09-28T05:06:00.506Z,10.10
2022-09-28T05:08:27.238Z,10.90
2022-09-28T05:10:59.073Z,10.00
2022-09-28T05:13:26.452Z,12.80
2022-09-28T05:15:58.091Z,11.20
2022-09-28T05:18:26.364Z,10.20
2022-09-28T05:20:53.122Z,9.50
2022-09-28T05:23:19.863Z,11.10
2022-09-28T05:25:46.479Z,10.00
2022-09-28T05:28:12.948Z,12.10
2022-09-28T05:30:39.669Z,14.50
2022-09-28T05:33:06.108Z,21.30
2022-09-28T05:35:33.664Z,15.20
2022-09-28T05:40:26.175Z,11.40
2022-09-28T05:42:53.283Z,9.50
2022-09-28T05:45:19.798Z,10.70
2022-09-28T05:47:46.166Z,9.60
2022-09-28T05:50:15.531Z,11.30
2022-09-28T05:52:42.885Z,9.50
2022-09-28T05:55:09.902Z,10.40
2022-09-28T05:57:36.695Z,9.90
2022-09-28T06:00:09.000Z,9.20
2022-09-28T06:02:36.149Z,10.00
2022-09-28T06:05:03.852Z,12.80
2022-09-28T06:07:31.311Z,10.70
2022-09-28T06:09:59.463Z,11.10
2022-09-28T06:12:26.447Z,12.80
2022-09-28T06:14:52.984Z,9.70
2022-09-28T06:17:19.294Z,9.70
2022-09-28T06:19:45.645Z,11.80
2022-09-28T06:22:12.100Z,9.60
2022-09-28T06:24:38.794Z,9.90
2022-09-28T06:27:05.227Z,9.30
2022-09-28T06:29:32.081Z,10.50
2022-09-28T06:31:58.602Z,13.00
2022-09-28T06:34:25.446Z,10.40
2022-09-28T06:36:51.785Z,10.80
2022-09-28T06:39:18.104Z,12.00
2022-09-28T06:41:44.539Z,11.00
2022-09-28T06:44:11.126Z,12.60
2022-09-28T06:46:38.747Z,10.60
2022-09-28T06:49:08.660Z,10.90
2022-09-28T06:51:36.411Z,12.40
2022-09-28T06:54:03.373Z,10.50
2022-09-28T06:56:32.919Z,12.90
2022-09-28T06:58:59.603Z,11.50
2022-09-28T07:01:26.120Z,10.50
2022-09-28T07:03:55.511Z,14.50
2022-09-28T07:06:23.750Z,12.70
2022-09-28T07:08:58.224Z,10.80
2022-09-28T07:11:43.913Z,12.80
2022-09-28T07:14:22.021Z,10.60
2022-09-28T07:17:11.167Z,10.60
2022-09-28T07:19:38.847Z,10.00
2022-09-28T07:22:05.746Z,10.80
2022-09-28T07:24:32.639Z,12.00
2022-09-28T07:26:59.270Z,9.90
2022-09-28T07:29:25.935Z,12.00
2022-09-28T07:31:53.473Z,10.40
2022-09-28T07:34:23.186Z,13.50
2022-09-28T07:36:51.480Z,11.60
2022-09-28T07:39:17.797Z,9.80
2022-09-28T07:41:44.270Z,10.80
2022-09-28T07:44:10.932Z,10.40
2022-09-28T07:46:37.902Z,11.60
2022-09-28T07:49:08.317Z,9.10
2022-09-28T07:51:38.463Z,10.70
2022-09-28T07:54:07.070Z,9.30
2022-09-28T07:56:34.486Z,10.20
2022-09-28T07:59:00.901Z,8.90
2022-09-28T08:01:29.982Z,8.40
2022-09-28T08:03:56.624Z,9.50
2022-09-28T08:06:23.061Z,10.30
2022-09-28T08:08:49.831Z,7.30
2022-09-28T08:11:18.296Z,6.50
2022-09-28T08:13:46.080Z,8.20
2022-09-28T08:16:12.843Z,5.90
2022-09-28T08:18:39.752Z,6.70
2022-09-28T08:21:25.612Z,4.90
2022-09-28T08:23:52.585Z,5.30
2022-09-28T08:26:19.320Z,6.90
2022-09-28T08:28:47.159Z,7.60
2022-09-28T08:31:13.812Z,8.60
2022-09-28T08:33:43.579Z,5.50
2022-09-28T08:36:10.561Z,5.40
2022-09-28T08:38:37.116Z,4.30
2022-09-28T08:41:26.761Z,4.50
2022-09-28T08:43:57.530Z,6.20
2022-09-28T08:46:27.325Z,5.80
2022-09-28T08:49:20.666Z,5.00
2022-09-28T08:51:51.122Z,4.40
2022-09-28T08:54:28.616Z,3.70
2022-09-28T08:59:41.891Z,6.20
2022-09-28T09:04:35.138Z,7.00
2022-09-28T09:07:08.731Z,5.90
2022-09-28T09:09:37.905Z,3.90
2022-09-28T09:12:09.989Z,3.50
2022-09-28T09:14:43.389Z,4.50
2022-09-28T09:17:17.867Z,3.50
2022-09-28T09:19:44.858Z,5.30
2022-09-28T09:22:30.230Z,6.80
2022-09-28T09:24:59.955Z,4.40
2022-09-28T09:27:32.929Z,4.40
2022-09-28T09:30:02.428Z,5.10
2022-09-28T09:32:40.789Z,5.90
2022-09-28T09:35:27.790Z,5.70
2022-09-28T09:38:01.367Z,6.00
2022-09-28T09:40:31.492Z,6.20
2022-09-28T09:43:01.230Z,7.10
2022-09-28T09:45:40.674Z,5.60
2022-09-28T09:48:09.748Z,6.00
2022-09-28T09:50:44.134Z,3.60
2022-09-28T09:53:16.109Z,5.30
2022-09-28T09:55:47.957Z,5.80
2022-09-28T09:58:17.872Z,5.80
2022-09-28T10:00:46.012Z,5.10
2022-09-28T10:03:32.643Z,5.10
2022-09-28T10:06:20.610Z,4.10
2022-09-28T10:08:48.658Z,7.00
2022-09-28T10:11:18.400Z,5.30
2022-09-28T10:13:47.972Z,5.80
2022-09-28T10:16:18.228Z,5.00
2022-09-28T10:18:45.209Z,4.90
2022-09-28T10:21:16.374Z,4.90
2022-09-28T10:23:44.351Z,5.10
2022-09-28T10:26:40.388Z,5.00
2022-09-28T10:29:14.074Z,4.30
2022-09-28T10:31:41.965Z,3.90
2022-09-28T10:34:14.364Z,3.10
2022-09-28T10:36:46.586Z,5.20
2022-09-28T10:39:31.451Z,3.80
2022-09-28T10:42:04.643Z,4.40
2022-09-28T10:44:33.225Z,4.70
2022-09-28T10:47:05.198Z,3.80
2022-09-28T10:49:41.050Z,3.50
2022-09-28T10:52:40.149Z,3.90
2022-09-28T10:55:25.117Z,3.60
2022-09-28T10:57:52.984Z,4.20
2022-09-28T11:00:52.317Z,3.10
2022-09-28T11:03:22.005Z,3.90
2022-09-28T11:05:56.444Z,3.00
2022-09-28T11:08:26.425Z,3.10
2022-09-28T11:11:15.993Z,3.00
2022-09-28T11:13:44.371Z,3.40
2022-09-28T11:16:23.019Z,2.60
2022-09-28T11:18:49.450Z,2.80
2022-09-28T11:21:17.346Z,3.30
2022-09-28T11:23:58.299Z,4.10
2022-09-28T11:26:25.272Z,3.00
2022-09-28T11:28:53.382Z,4.00
2022-09-28T11:31:25.055Z,1.60
2022-09-28T11:34:00.887Z,2.60
2022-09-28T11:36:40.310Z,2.70
2022-09-28T11:39:32.989Z,3.60
2022-09-28T11:42:02.246Z,2.40
2022-09-28T11:44:39.193Z,3.00
2022-09-28T11:47:15.330Z,2.70
2022-09-28T11:49:48.191Z,2.20
2022-09-28T11:52:20.894Z,3.20
2022-09-28T11:54:54.427Z,2.90
2022-09-28T11:57:23.670Z,4.50
2022-09-28T11:59:57.472Z,4.10
2022-09-28T12:02:26.658Z,5.50
2022-09-28T12:05:02.702Z,2.70
2022-09-28T12:07:35.836Z,2.60
2022-09-28T12:10:07.676Z,3.30
2022-09-28T12:12:34.825Z,2.10
2022-09-28T12:15:12.316Z,3.30
2022-09-28T12:17:42.905Z,1.90
2022-09-28T12:20:21.649Z,3.70
2022-09-28T12:23:03.518Z,2.50
2022-09-28T12:25:34.094Z,3.00
2022-09-28T12:28:03.046Z,3.10
2022-09-28T12:30:32.861Z,3.10
2022-09-28T12:33:13.459Z,1.80
2022-09-28T12:35:58.939Z,2.30
2022-09-28T12:38:25.157Z,2.90
2022-09-28T12:40:56.113Z,3.50
2022-09-28T12:43:37.077Z,2.70
2022-09-28T12:46:14.035Z,2.60
2022-09-28T12:49:47.304Z,3.10
2022-09-28T12:51:51.795Z,3.00
2022-09-28T12:54:42.269Z,1.80
2022-09-28T12:57:08.758Z,2.00
2022-09-28T12:59:42.302Z,4.90
2022-09-28T13:02:12.468Z,2.90
2022-09-28T13:04:45.411Z,2.80
2022-09-28T13:07:18.289Z,5.80
2022-09-28T13:09:44.938Z,6.60
2022-09-28T13:12:12.997Z,6.60
2022-09-28T13:14:55.746Z,6.50
2022-09-28T13:17:42.526Z,33.50
2022-09-28T13:20:21.445Z,14.80
2022-09-28T13:22:50.809Z,5.60
2022-09-28T13:25:20.149Z,3.30
2022-09-28T13:28:07.089Z,5.90
2022-09-28T13:30:36.053Z,4.00
2022-09-28T13:33:05.345Z,6.90
2022-09-28T13:35:33.160Z,5.20
2022-09-28T13:38:21.565Z,5.30
2022-09-28T13:41:15.135Z,8.70
2022-09-28T13:43:48.869Z,6.50
2022-09-28T13:46:28.012Z,4.20
2022-09-28T13:48:54.551Z,3.70
2022-09-28T13:51:27.285Z,2.70
2022-09-28T13:54:12.764Z,3.00
2022-09-28T13:56:48.828Z,2.70
2022-09-28T13:59:17.902Z,2.40
2022-09-28T14:01:55.144Z,1.60
2022-09-28T14:04:24.597Z,2.30
2022-09-28T14:06:56.974Z,4.70
2022-09-28T14:09:25.322Z,9.90
2022-09-28T14:12:02.135Z,6.40
2022-09-28T14:14:29.895Z,2.60
2022-09-28T14:19:27.787Z,2.00
2022-09-28T14:22:09.624Z,6.20
2022-09-28T14:24:49.015Z,7.70
2022-09-28T14:27:34.273Z,4.80
2022-09-28T14:30:15.794Z,3.00
2022-09-28T14:32:47.109Z,4.00
2022-09-28T14:35:33.621Z,2.80
2022-09-28T14:41:11.882Z,1.40
2022-09-28T14:43:43.826Z,2.80
2022-09-28T14:46:15.529Z,2.10
2022-09-28T14:48:47.751Z,2.30
2022-09-28T14:51:27.112Z,2.30
2022-09-28T14:53:56.358Z,1.60
2022-09-28T14:56:23.408Z,2.70
2022-09-28T14:58:53.117Z,2.40
2022-09-28T15:01:21.800Z,2.60
2022-09-28T15:03:50.785Z,2.20
2022-09-28T15:06:18.895Z,2.10
2022-09-28T15:08:45.559Z,2.60
2022-09-28T15:11:20.534Z,2.70
2022-09-28T15:13:47.182Z,2.10
2022-09-28T15:16:15.088Z,2.60
2022-09-28T15:19:01.044Z,2.20
2022-09-28T15:21:32.019Z,2.00
2022-09-28T15:23:59.339Z,2.40
2022-09-28T15:26:31.040Z,2.10
2022-09-28T15:28:58.122Z,4.60
2022-09-28T15:34:11.516Z,2.50
2022-09-28T15:36:40.401Z,3.40
2022-09-28T15:39:13.146Z,2.60
2022-09-28T15:41:41.114Z,3.80
2022-09-28T15:44:10.106Z,4.30
2022-09-28T15:46:38.435Z,6.10
2022-09-28T15:49:05.730Z,4.00
2022-09-28T15:51:45.684Z,4.80
2022-09-28T15:54:19.624Z,3.80
2022-09-28T15:57:04.579Z,4.80
2022-09-28T15:59:33.266Z,3.30
2022-09-28T16:02:08.091Z,4.90
2022-09-28T16:04:44.970Z,4.10
2022-09-28T16:07:17.883Z,4.60
2022-09-28T16:09:54.220Z,2.80
2022-09-28T16:12:21.887Z,3.80
2022-09-28T16:14:50.242Z,2.80
2022-09-28T16:17:20.462Z,5.80
2022-09-28T16:19:48.946Z,5.20
2022-09-28T16:22:22.656Z,5.50
2022-09-28T16:24:56.653Z,8.60
2022-09-28T16:27:24.616Z,7.80
2022-09-28T16:30:04.671Z,5.40
2022-09-28T16:32:37.043Z,5.50
2022-09-28T16:35:16.711Z,6.80
2022-09-28T16:37:43.321Z,12.30
2022-09-28T16:40:10.670Z,7.70
2022-09-28T16:42:40.073Z,7.10
2022-09-28T16:45:08.351Z,7.50
2022-09-28T16:47:35.373Z,5.40
2022-09-28T16:50:05.764Z,6.50
2022-09-28T16:52:51.811Z,6.20
2022-09-28T16:58:06.497Z,5.10
2022-09-28T17:03:00.141Z,7.40
2022-09-28T17:05:26.969Z,8.90
2022-09-28T17:08:03.585Z,7.10
2022-09-28T17:10:50.191Z,7.60
2022-09-28T17:13:35.467Z,5.80
2022-09-28T17:16:04.539Z,7.10
2022-09-28T17:18:31.727Z,6.70
2022-09-28T17:21:03.626Z,6.90
2022-09-28T17:23:31.661Z,6.50
2022-09-28T17:28:25.025Z,6.90
2022-09-28T17:30:51.922Z,18.10
2022-09-28T17:33:19.006Z,26.90
2022-09-28T17:35:46.279Z,27.60
2022-09-28T17:38:14.139Z,34.50
2022-09-28T17:40:42.670Z,14.60
2022-09-28T17:43:09.550Z,17.90
2022-09-28T17:45:41.515Z,14.90
2022-09-28T17:48:15.931Z,17.30
2022-09-28T17:50:46.250Z,20.80
2022-09-28T17:53:13.928Z,21.00
2022-09-28T17:58:23.179Z,11.00
2022-09-28T18:00:50.721Z,8.90
2022-09-28T18:03:19.006Z,9.30
2022-09-28T18:05:49.118Z,6.30
2022-09-28T18:08:17.598Z,6.00
2022-09-28T18:10:45.871Z,5.90
2022-09-28T18:13:14.279Z,4.50
2022-09-28T18:15:41.634Z,4.90
2022-09-28T18:18:12.543Z,4.80
2022-09-28T18:20:40.920Z,6.40
2022-09-28T18:23:07.965Z,4.10
2022-09-28T18:25:38.375Z,4.60
2022-09-28T18:28:04.934Z,5.10
2022-09-28T18:30:33.721Z,5.80
2022-09-28T18:33:01.481Z,4.40
2022-09-28T18:35:28.673Z,5.30
2022-09-28T18:37:55.678Z,4.60
2022-09-28T18:40:23.519Z,5.20
2022-09-28T18:42:50.996Z,8.30
2022-09-28T18:45:19.423Z,3.90
2022-09-28T18:47:47.449Z,3.00
2022-09-28T18:50:35.110Z,4.20
2022-09-28T18:53:11.762Z,5.30
2022-09-28T18:55:40.226Z,5.50
2022-09-28T18:58:07.991Z,6.40
2022-09-28T19:00:36.894Z,5.80
2022-09-28T19:03:05.355Z,5.80
2022-09-28T19:05:33.432Z,6.80
2022-09-28T19:10:29.577Z,4.50
2022-09-28T19:12:57.166Z,5.40
2022-09-28T19:15:25.100Z,4.60
2022-09-28T19:17:52.257Z,5.80
2022-09-28T19:20:18.681Z,5.20
2022-09-28T19:22:48.397Z,6.50
2022-09-28T19:25:15.645Z,6.60
2022-09-28T19:27:42.796Z,6.70
2022-09-28T19:30:09.901Z,6.00
2022-09-28T19:32:38.460Z,6.20
2022-09-28T19:35:06.188Z,5.90
2022-09-28T19:37:39.336Z,5.70
2022-09-28T19:40:07.255Z,4.50
2022-09-28T19:42:36.198Z,5.30
2022-09-28T19:45:03.282Z,5.00
2022-09-28T19:47:32.414Z,5.20
2022-09-28T19:49:59.759Z,5.80
2022-09-28T19:52:27.801Z,6.30
2022-09-28T19:54:57.458Z,7.30
2022-09-28T19:57:32.155Z,7.10
2022-09-28T20:00:05.728Z,4.50
2022-09-28T20:02:34.335Z,5.20
2022-09-28T20:07:32.307Z,6.30
2022-09-28T20:10:01.600Z,6.70
2022-09-28T20:12:30.696Z,7.10
2022-09-28T20:14:57.435Z,6.90
2022-09-28T20:17:24.998Z,7.00
2022-09-28T20:22:19.813Z,5.90
2022-09-28T20:24:46.959Z,6.30
2022-09-28T20:27:13.516Z,5.80
2022-09-28T20:29:43.418Z,6.80
2022-09-28T20:32:11.380Z,5.40
2022-09-28T20:34:38.954Z,6.30
2022-09-28T20:39:33.970Z,6.60
2022-09-28T20:42:00.439Z,5.90
2022-09-28T20:44:28.655Z,6.70
2022-09-28T20:46:56.217Z,7.10
2022-09-28T20:51:50.209Z,6.20
2022-09-28T20:54:16.943Z,8.10
2022-09-28T20:59:11.654Z,7.00
2022-09-28T21:01:38.547Z,7.00
2022-09-28T21:04:06.068Z,6.90
2022-09-28T21:06:34.258Z,5.50
2022-09-28T21:09:01.479Z,6.80
2022-09-28T21:11:29.238Z,5.90
2022-09-28T21:13:59.874Z,7.20
2022-09-28T21:16:27.647Z,7.30
2022-09-28T21:18:56.479Z,7.40
2022-09-28T21:21:23.673Z,5.20
2022-09-28T21:23:53.688Z,5.90
2022-09-28T21:26:24.487Z,7.30
2022-09-28T21:28:52.332Z,5.90
2022-09-28T21:31:21.808Z,6.50
2022-09-28T21:33:51.023Z,6.30
2022-09-28T21:36:17.998Z,6.90
2022-09-28T21:38:44.701Z,5.80
2022-09-28T21:41:11.222Z,6.80
2022-09-28T21:43:38.155Z,6.50
2022-09-28T21:46:06.567Z,7.00
2022-09-28T21:48:32.961Z,9.40
2022-09-28T21:51:04.309Z,7.60
2022-09-28T21:53:32.794Z,5.80
2022-09-28T21:56:00.043Z,6.40
2022-09-28T21:58:28.936Z,5.70
2022-09-28T22:01:04.072Z,7.20
2022-09-28T22:03:31.728Z,6.40
2022-09-28T22:05:57.995Z,6.40
2022-09-28T22:08:25.003Z,8.40
2022-09-28T22:11:00.142Z,7.00
2022-09-28T22:13:27.766Z,9.80
2022-09-28T22:15:54.918Z,9.00
2022-09-28T22:20:57.095Z,7.30
2022-09-28T22:23:23.496Z,6.30
2022-09-28T22:25:49.709Z,6.90
2022-09-28T22:28:16.231Z,8.50
2022-09-28T22:30:43.265Z,7.40
2022-09-28T22:33:09.818Z,7.10
2022-09-28T22:35:36.241Z,5.10
2022-09-28T22:38:03.277Z,6.70
2022-09-28T22:40:30.208Z,6.90
2022-09-28T22:42:56.471Z,7.30
2022-09-28T22:45:22.889Z,7.70
2022-09-28T22:47:49.234Z,7.00
2022-09-28T22:50:15.653Z,7.10
2022-09-28T22:52:41.987Z,8.90
2022-09-28T22:55:08.648Z,6.60
2022-09-28T22:57:34.987Z,6.30
2022-09-28T23:00:01.387Z,10.60
2022-09-28T23:02:27.959Z,10.60
2022-09-28T23:04:54.250Z,7.10
2022-09-28T23:07:20.984Z,6.70
2022-09-28T23:09:47.317Z,7.20
2022-09-28T23:12:13.644Z,6.90
2022-09-28T23:14:39.951Z,7.10
2022-09-28T23:17:06.142Z,6.00
2022-09-28T23:19:32.506Z,6.50
2022-09-28T23:21:58.797Z,8.70
2022-09-28T23:24:25.175Z,7.80
2022-09-28T23:26:51.576Z,8.40
2022-09-28T23:29:17.782Z,6.30
2022-09-28T23:31:44.922Z,6.80
2022-09-28T23:34:11.434Z,7.20
2022-09-28T23:36:38.049Z,7.70
2022-09-28T23:39:04.606Z,6.00
2022-09-28T23:41:31.965Z,7.00
2022-09-28T23:43:58.292Z,7.50
2022-09-28T23:46:25.097Z,8.00
2022-09-28T23:48:51.878Z,10.40
2022-09-28T23:51:18.507Z,8.00
2022-09-28T23:53:45.307Z,9.40
2022-09-28T23:56:12.049Z,9.70
2022-09-28T23:58:38.249Z,8.90
